Time;durP1;ratioP1;P1;durP2;ratioP2;P2;SDS_P1;SDS_P2;PMS_P1;PMS_P2;Temp;Humidity;BMP_temperature;BMP_pressure;BME280_temperature;BME280_humidity;BME280_pressure;Samples;Min_cycle;Max_cycle;Signal;HPM_P1;HPM_P2
2023/08/31 00:01:55;;;;;;;9.60;5.45;;;;;;;;;;8444754;28;20048;-88
2023/08/31 00:06:03;;;;;;;9.02;5.32;;;;;;;;;;8445184;28;20104;-87
2023/08/31 00:10:09;;;;;;;9.35;5.25;;;;;;;;;;8463010;28;20112;-86
2023/08/31 00:14:13;;;;;;;9.27;5.50;;;;;;;;;;8463547;28;20135;-88
2023/08/31 00:18:17;;;;;;;11.68;4.85;;;;;;;;;;8462760;28;20097;-87
2023/08/31 00:22:20;;;;;;;9.10;5.07;;;;;;;;;;8463628;28;20075;-87
2023/08/31 00:26:24;;;;;;;8.43;4.88;;;;;;;;;;8415435;28;20090;-88
2023/08/31 00:30:31;;;;;;;8.98;5.22;;;;;;;;;;8422203;28;20510;-88
2023/08/31 00:34:35;;;;;;;6.78;4.43;;;;;;;;;;8412707;28;20056;-87
2023/08/31 00:38:38;;;;;;;10.73;5.30;;;;;;;;;;8421114;28;20052;-87
2023/08/31 00:42:43;;;;;;;9.57;4.88;;;;;;;;;;8409047;28;20100;-87
2023/08/31 00:46:47;;;;;;;9.30;5.15;;;;;;;;;;8422091;28;20064;-88
2023/08/31 00:50:50;;;;;;;7.72;5.00;;;;;;;;;;8428265;28;20051;-87
2023/08/31 00:54:55;;;;;;;8.48;5.22;;;;;;;;;;8428440;28;20139;-88
2023/08/31 00:58:58;;;;;;;14.25;5.55;;;;;;;;;;8408456;28;20428;-88
2023/08/31 01:03:11;;;;;;;11.40;5.93;;;;;;;;;;8415343;28;20140;-89
2023/08/31 01:07:30;;;;;;;9.85;5.53;;;;;;;;;;8398069;28;20056;-88
2023/08/31 01:11:51;;;;;;;10.50;5.45;;;;;;;;;;8395808;28;20059;-88
2023/08/31 01:15:57;;;;;;;9.70;6.50;;;;;;;;;;8424064;28;20079;-89
2023/08/31 01:20:03;;;;;;;12.98;6.22;;;;;;;;;;8412332;28;20058;-89
2023/08/31 01:24:08;;;;;;;11.05;6.20;;;;;;;;;;8428968;28;20496;-88
2023/08/31 01:28:12;;;;;;;10.43;6.30;;;;;;;;;;8461639;28;20127;-89
2023/08/31 01:42:27;;;;;;;9.55;6.05;;;;;;;;;;8401675;28;20058;-88
2023/08/31 01:46:30;;;;;;;10.50;6.35;;;;;;;;;;8398175;28;20064;-89
2023/08/31 01:50:33;;;;;;;10.43;6.15;;;;;;;;;;8395511;28;20061;-88
2023/08/31 01:54:37;;;;;;;7.93;6.00;;;;;;;;;;8388535;28;20070;-89
2023/08/31 01:58:46;;;;;;;10.55;6.30;;;;;;;;;;8499216;22;20058;-88
2023/08/31 02:02:49;;;;;;;12.07;6.57;;;;;;;;;;8423856;28;20051;-89
2023/08/31 02:06:52;;;;;;;11.00;7.03;;;;;;;;;;8411043;28;20487;-88
2023/08/31 02:10:55;;;;;;;13.18;7.20;;;;;;;;;;8416767;28;20052;-88
2023/08/31 02:15:01;;;;;;;15.98;7.47;;;;;;;;;;8399529;28;20131;-89
2023/08/31 02:19:04;;;;;;;12.32;7.60;;;;;;;;;;8413748;28;20052;-88
2023/08/31 02:23:07;;;;;;;12.85;7.38;;;;;;;;;;8413679;28;20058;-88
2023/08/31 02:27:10;;;;;;;14.40;7.50;;;;;;;;;;8418947;28;20416;-88
2023/08/31 02:31:15;;;;;;;11.15;7.43;;;;;;;;;;8428761;28;20481;-89
2023/08/31 02:35:18;;;;;;;11.05;7.15;;;;;;;;;;8430832;28;20060;-87
2023/08/31 02:39:21;;;;;;;10.65;7.28;;;;;;;;;;8401340;28;20056;-89
2023/08/31 02:43:25;;;;;;;11.88;6.80;;;;;;;;;;8394912;28;20061;-88
2023/08/31 02:47:32;;;;;;;10.15;6.95;;;;;;;;;;8389780;28;20536;-87
2023/08/31 02:51:35;;;;;;;12.23;7.70;;;;;;;;;;8407618;28;20048;-88
2023/08/31 02:55:38;;;;;;;14.65;7.28;;;;;;;;;;8403738;28;20410;-87
2023/08/31 02:59:42;;;;;;;11.48;7.30;;;;;;;;;;8431868;28;20059;-88
2023/08/31 03:03:49;;;;;;;10.90;7.00;;;;;;;;;;8400256;28;20051;-87
2023/08/31 03:07:53;;;;;;;11.55;7.32;;;;;;;;;;8405230;28;20055;-87
2023/08/31 03:11:56;;;;;;;21.75;9.45;;;;;;;;;;8412826;28;20105;-87
2023/08/31 03:15:59;;;;;;;11.77;7.47;;;;;;;;;;8425342;28;20052;-87
2023/08/31 03:20:07;;;;;;;15.23;7.30;;;;;;;;;;8407687;28;20495;-88
2023/08/31 03:24:10;;;;;;;10.90;6.72;;;;;;;;;;8413670;28;20052;-88
2023/08/31 03:28:14;;;;;;;13.43;7.53;;;;;;;;;;8413637;28;20060;-89
2023/08/31 03:32:17;;;;;;;15.45;7.00;;;;;;;;;;8401827;28;20464;-88
2023/08/31 03:36:24;;;;;;;13.38;7.00;;;;;;;;;;8385529;28;20258;-88
2023/08/31 03:40:27;;;;;;;14.20;7.30;;;;;;;;;;8406055;28;20468;-87
2023/08/31 03:44:30;;;;;;;13.68;7.70;;;;;;;;;;8410755;28;20496;-88
2023/08/31 03:48:33;;;;;;;10.85;7.18;;;;;;;;;;8424122;28;20056;-88
2023/08/31 03:52:41;;;;;;;10.73;7.05;;;;;;;;;;8412434;28;20407;-87
2023/08/31 03:56:44;;;;;;;13.13;6.80;;;;;;;;;;8431914;22;20067;-88
2023/08/31 04:00:50;;;;;;;13.07;7.82;;;;;;;;;;8363519;28;20049;-87
2023/08/31 04:04:53;;;;;;;12.25;8.13;;;;;;;;;;8343437;28;20063;-87
2023/08/31 04:08:57;;;;;;;11.07;7.82;;;;;;;;;;8363096;28;20135;-88
2023/08/31 04:13:01;;;;;;;10.55;7.22;;;;;;;;;;8345854;28;20091;-87
2023/08/31 04:17:04;;;;;;;11.80;7.43;;;;;;;;;;8329523;28;20540;-88
2023/08/31 04:21:08;;;;;;;14.07;8.75;;;;;;;;;;8329159;28;20072;-88
2023/08/31 04:25:13;;;;;;;19.38;11.98;;;;;;;;;;8336794;28;20076;-88
2023/08/31 04:29:16;;;;;;;13.82;7.78;;;;;;;;;;8362729;28;20568;-88
2023/08/31 04:33:19;;;;;;;13.30;8.35;;;;;;;;;;8362637;28;20398;-88
2023/08/31 04:37:22;;;;;;;16.75;9.70;;;;;;;;;;8362547;28;20264;-88
2023/08/31 04:41:27;;;;;;;13.70;9.57;;;;;;;;;;8362518;28;20068;-88
2023/08/31 04:45:30;;;;;;;14.57;8.00;;;;;;;;;;8361534;28;20053;-87
2023/08/31 04:49:34;;;;;;;12.52;8.13;;;;;;;;;;8317781;28;20057;-87
2023/08/31 04:53:37;;;;;;;15.23;8.63;;;;;;;;;;8351504;28;20084;-87
2023/08/31 04:57:41;;;;;;;10.35;7.57;;;;;;;;;;8362309;28;20045;-88
2023/08/31 05:01:44;;;;;;;12.10;7.70;;;;;;;;;;8361811;28;20049;-89
2023/08/31 05:05:48;;;;;;;10.02;7.57;;;;;;;;;;8335657;28;20140;-88
2023/08/31 05:09:51;;;;;;;11.98;7.45;;;;;;;;;;8325475;28;20057;-88
2023/08/31 05:13:56;;;;;;;11.10;7.07;;;;;;;;;;8329264;28;20119;-88
2023/08/31 05:22:09;;;;;;;11.02;7.28;;;;;;;;;;8448923;22;20124;-88
2023/08/31 05:26:13;;;;;;;9.95;7.15;;;;;;;;;;8375011;28;20053;-88
2023/08/31 05:30:18;;;;;;;9.90;7.07;;;;;;;;;;8392556;28;20054;-87
2023/08/31 05:34:23;;;;;;;11.20;6.97;;;;;;;;;;8362325;28;20127;-88
2023/08/31 05:38:27;;;;;;;12.77;7.13;;;;;;;;;;8370577;28;20064;-89
2023/08/31 05:42:33;;;;;;;8.63;6.32;;;;;;;;;;8376151;28;20060;-89
2023/08/31 05:46:41;;;;;;;10.52;6.88;;;;;;;;;;8353854;28;20081;-88
2023/08/31 05:50:44;;;;;;;8.77;5.97;;;;;;;;;;8365781;28;20059;-89
2023/08/31 05:54:47;;;;;;;10.43;6.90;;;;;;;;;;8386915;28;20127;-89
2023/08/31 05:58:50;;;;;;;10.60;5.80;;;;;;;;;;8383520;28;20080;-87
2023/08/31 06:02:54;;;;;;;8.35;5.50;;;;;;;;;;8395874;28;20060;-88
2023/08/31 06:06:58;;;;;;;8.65;4.85;;;;;;;;;;8426638;22;20586;-88
2023/08/31 06:11:01;;;;;;;7.13;4.47;;;;;;;;;;8349213;28;20053;-89
2023/08/31 06:15:04;;;;;;;5.70;4.03;;;;;;;;;;8344560;28;20084;-87
2023/08/31 06:19:15;;;;;;;6.95;4.30;;;;;;;;;;8330107;28;20544;-87
2023/08/31 06:23:18;;;;;;;5.03;3.78;;;;;;;;;;8330553;28;20049;-88
2023/08/31 06:27:21;;;;;;;6.43;4.30;;;;;;;;;;8331281;28;20489;-88
2023/08/31 06:31:25;;;;;;;6.28;4.10;;;;;;;;;;8595788;22;20082;-91
2023/08/31 06:35:29;;;;;;;7.20;3.80;;;;;;;;;;8364651;28;20055;-91
2023/08/31 06:39:34;;;;;;;7.32;3.63;;;;;;;;;;8380456;28;20049;-89
2023/08/31 06:43:37;;;;;;;7.43;3.55;;;;;;;;;;8375490;28;20100;-96
2023/08/31 06:47:40;;;;;;;6.43;3.90;;;;;;;;;;8373992;28;20057;-91
2023/08/31 06:51:44;;;;;;;6.72;3.20;;;;;;;;;;8366062;28;20104;-90
2023/08/31 06:55:47;;;;;;;6.75;3.22;;;;;;;;;;8372713;28;20045;-94
2023/08/31 06:59:50;;;;;;;4.80;3.03;;;;;;;;;;8361721;28;20062;-89
2023/08/31 07:04:01;;;;;;;5.10;3.10;;;;;;;;;;8370281;28;20136;-90
2023/08/31 07:08:06;;;;;;;3.78;2.50;;;;;;;;;;8373131;28;20131;-89
2023/08/31 07:12:12;;;;;;;5.10;2.60;;;;;;;;;;8356384;28;20099;-89
2023/08/31 07:16:18;;;;;;;3.88;2.88;;;;;;;;;;8370836;28;20073;-95
2023/08/31 07:20:46;;;;;;;4.70;2.58;;;;;;;;;;8376195;28;20497;-88
2023/08/31 07:25:11;;;;;;;4.88;2.35;;;;;;;;;;8390378;28;20500;-89
2023/08/31 07:29:21;;;;;;;4.55;2.25;;;;;;;;;;8338868;28;20480;-92
2023/08/31 07:33:25;;;;;;;6.03;2.40;;;;;;;;;;8349147;28;20171;-91
2023/08/31 07:37:28;;;;;;;4.60;2.20;;;;;;;;;;8365094;28;20083;-94
2023/08/31 07:41:32;;;;;;;2.83;1.77;;;;;;;;;;8359092;28;20053;-94
2023/08/31 07:45:36;;;;;;;3.95;2.08;;;;;;;;;;8348341;28;20048;-89
2023/08/31 07:49:40;;;;;;;2.85;2.08;;;;;;;;;;8349958;28;20060;-89
2023/08/31 07:53:43;;;;;;;2.40;1.90;;;;;;;;;;8364329;28;20056;-88
2023/08/31 07:57:50;;;;;;;3.17;1.60;;;;;;;;;;8364632;28;20045;-87
2023/08/31 08:01:53;;;;;;;2.53;1.75;;;;;;;;;;8364414;28;20118;-91
2023/08/31 08:05:57;;;;;;;2.65;1.58;;;;;;;;;;8350891;28;20132;-91
2023/08/31 08:10:00;;;;;;;2.90;1.65;;;;;;;;;;8364179;28;20106;-88
2023/08/31 08:14:06;;;;;;;4.20;1.77;;;;;;;;;;8363787;28;20064;-88
2023/08/31 08:18:10;;;;;;;2.47;1.80;;;;;;;;;;8351455;28;20052;-91
2023/08/31 08:22:13;;;;;;;6.60;1.92;;;;;;;;;;8362719;28;20124;-92
2023/08/31 08:26:16;;;;;;;2.22;1.60;;;;;;;;;;8363812;28;20056;-90
2023/08/31 08:30:20;;;;;;;2.58;1.83;;;;;;;;;;8363361;28;20067;-88
2023/08/31 08:34:23;;;;;;;4.28;1.90;;;;;;;;;;8363213;28;20071;-92
2023/08/31 08:38:27;;;;;;;3.35;1.73;;;;;;;;;;8363444;28;20511;-92
2023/08/31 08:42:32;;;;;;;2.83;1.75;;;;;;;;;;8363746;28;20068;-90
2023/08/31 08:46:38;;;;;;;2.75;1.95;;;;;;;;;;8363449;28;20080;-92
2023/08/31 08:50:42;;;;;;;2.42;1.83;;;;;;;;;;8363733;28;20175;-88
2023/08/31 08:54:45;;;;;;;3.25;1.80;;;;;;;;;;8349721;28;20045;-91
2023/08/31 08:58:48;;;;;;;4.93;1.90;;;;;;;;;;8344457;28;20489;-90
2023/08/31 09:02:53;;;;;;;2.33;1.95;;;;;;;;;;8361173;28;20045;-89
2023/08/31 09:06:56;;;;;;;3.40;2.00;;;;;;;;;;8361117;28;20050;-89
2023/08/31 09:10:59;;;;;;;2.92;1.92;;;;;;;;;;8345158;28;20083;-92
2023/08/31 09:15:05;;;;;;;2.33;1.98;;;;;;;;;;8361221;28;20048;-93
2023/08/31 09:19:20;;;;;;;2.63;1.90;;;;;;;;;;8336131;28;20064;-90
2023/08/31 09:23:23;;;;;;;4.78;2.10;;;;;;;;;;8352786;28;20480;-94
2023/08/31 09:27:27;;;;;;;2.85;2.20;;;;;;;;;;8364048;28;20136;-94
2023/08/31 09:31:31;;;;;;;4.65;2.30;;;;;;;;;;8364124;28;20476;-93
2023/08/31 09:35:39;;;;;;;2.90;2.20;;;;;;;;;;8348507;28;20055;-95
2023/08/31 09:39:43;;;;;;;2.80;2.05;;;;;;;;;;8360856;28;20499;-91
2023/08/31 09:43:46;;;;;;;4.60;2.38;;;;;;;;;;8368443;28;20072;-93
2023/08/31 09:47:49;;;;;;;4.07;2.38;;;;;;;;;;8358683;28;20500;-95
2023/08/31 09:52:07;;;;;;;3.47;2.47;;;;;;;;;;8357613;28;20048;-89
2023/08/31 09:56:16;;;;;;;5.65;2.45;;;;;;;;;;8362717;28;20482;-91
2023/08/31 10:00:19;;;;;;;5.00;2.30;;;;;;;;;;8348504;28;20045;-90
2023/08/31 10:04:22;;;;;;;2.75;2.30;;;;;;;;;;8361198;28;20461;-94
2023/08/31 10:08:31;;;;;;;3.80;2.33;;;;;;;;;;8349559;28;20048;-94
2023/08/31 10:12:35;;;;;;;4.30;2.55;;;;;;;;;;8361495;28;20136;-92
2023/08/31 10:16:41;;;;;;;4.28;2.03;;;;;;;;;;8353105;28;20462;-94
2023/08/31 10:20:45;;;;;;;5.00;2.42;;;;;;;;;;8348692;28;20420;-91
2023/08/31 10:25:03;;;;;;;5.80;2.75;;;;;;;;;;8363419;28;20124;-92
2023/08/31 10:29:07;;;;;;;3.25;2.13;;;;;;;;;;8354286;28;20056;-94
2023/08/31 10:33:28;;;;;;;4.60;2.40;;;;;;;;;;8354151;28;20141;-94
2023/08/31 10:38:15;;;;;;;3.42;2.22;;;;;;;;;;8335646;28;20041;-94
2023/08/31 10:42:47;;;;;;;4.90;2.40;;;;;;;;;;8371247;22;20118;-93
2023/08/31 10:47:06;;;;;;;4.78;2.28;;;;;;;;;;8332013;28;20058;-92
2023/08/31 10:51:18;;;;;;;4.65;2.30;;;;;;;;;;8335214;28;20057;-91
2023/08/31 10:55:27;;;;;;;5.75;2.47;;;;;;;;;;8313852;28;20148;-94
2023/08/31 10:59:48;;;;;;;5.88;2.33;;;;;;;;;;8343943;28;20057;-94
2023/08/31 11:04:00;;;;;;;3.05;2.17;;;;;;;;;;8330472;28;20096;-94
2023/08/31 11:08:04;;;;;;;3.25;2.00;;;;;;;;;;8353019;28;20140;-95
2023/08/31 11:12:08;;;;;;;3.45;2.20;;;;;;;;;;8333827;28;20061;-94
2023/08/31 11:16:12;;;;;;;2.95;1.92;;;;;;;;;;8343643;28;20144;-91
2023/08/31 11:20:17;;;;;;;2.72;1.95;;;;;;;;;;8332544;28;20057;-93
2023/08/31 11:24:21;;;;;;;4.10;2.00;;;;;;;;;;8362789;28;20519;-95
2023/08/31 11:28:26;;;;;;;3.25;2.28;;;;;;;;;;8345597;28;20057;-94
2023/08/31 11:32:30;;;;;;;3.35;2.13;;;;;;;;;;8348101;28;20503;-94
2023/08/31 11:36:34;;;;;;;3.22;2.10;;;;;;;;;;8327019;28;20068;-94
2023/08/31 11:40:38;;;;;;;2.72;1.95;;;;;;;;;;8346320;28;20056;-94
2023/08/31 11:44:41;;;;;;;3.80;2.20;;;;;;;;;;8347668;28;20048;-94
2023/08/31 11:48:46;;;;;;;5.68;2.30;;;;;;;;;;8361705;28;20055;-92
2023/08/31 11:52:50;;;;;;;4.50;2.40;;;;;;;;;;8368922;28;20069;-93
2023/08/31 11:56:53;;;;;;;3.33;2.22;;;;;;;;;;8385078;28;20080;-93
2023/08/31 12:00:57;;;;;;;5.03;2.78;;;;;;;;;;8392858;28;20049;-92
2023/08/31 12:05:01;;;;;;;4.25;2.60;;;;;;;;;;8386519;28;20040;-92
2023/08/31 12:09:07;;;;;;;2.95;2.40;;;;;;;;;;8380154;28;20511;-92
2023/08/31 12:13:11;;;;;;;2.78;2.50;;;;;;;;;;8349086;28;20072;-92
2023/08/31 12:17:14;;;;;;;3.92;2.60;;;;;;;;;;8365088;28;20435;-94
2023/08/31 12:21:22;;;;;;;4.97;2.70;;;;;;;;;;8347199;28;20072;-94
2023/08/31 12:25:25;;;;;;;4.30;2.85;;;;;;;;;;8363654;28;20134;-93
2023/08/31 12:29:29;;;;;;;4.68;2.80;;;;;;;;;;8364513;28;20056;-92
2023/08/31 12:33:32;;;;;;;5.00;2.90;;;;;;;;;;8363778;28;20062;-94
2023/08/31 12:37:37;;;;;;;3.85;2.83;;;;;;;;;;8363630;28;20064;-93
2023/08/31 12:41:40;;;;;;;3.72;2.75;;;;;;;;;;8363545;28;20106;-92
2023/08/31 12:45:43;;;;;;;3.85;2.63;;;;;;;;;;8363771;28;20068;-93
2023/08/31 12:49:45;;;;;;;3.63;2.60;;;;;;;;;;8347655;28;20417;-93
2023/08/31 12:53:50;;;;;;;3.70;2.40;;;;;;;;;;8341177;28;20455;-91
2023/08/31 12:57:53;;;;;;;7.18;2.95;;;;;;;;;;8347590;28;20100;-90
2023/08/31 13:01:57;;;;;;;4.53;2.90;;;;;;;;;;8355491;28;20061;-93
2023/08/31 13:06:00;;;;;;;3.95;2.67;;;;;;;;;;8354006;28;20050;-93
2023/08/31 13:10:06;;;;;;;3.53;2.50;;;;;;;;;;8353405;28;20072;-93
2023/08/31 13:14:09;;;;;;;3.65;2.55;;;;;;;;;;8336561;28;20053;-94
2023/08/31 13:18:12;;;;;;;3.42;2.45;;;;;;;;;;8353251;28;20045;-91
2023/08/31 13:22:16;;;;;;;3.22;2.17;;;;;;;;;;8346411;28;20067;-92
2023/08/31 13:26:30;;;;;;;3.70;2.42;;;;;;;;;;8346546;28;20164;-93
2023/08/31 13:30:45;;;;;;;3.97;2.53;;;;;;;;;;8354198;28;20090;-92
2023/08/31 13:34:48;;;;;;;4.07;2.80;;;;;;;;;;8351591;28;20053;-94
2023/08/31 13:38:51;;;;;;;3.25;2.50;;;;;;;;;;8341017;28;20056;-94
2023/08/31 13:43:00;;;;;;;5.93;2.75;;;;;;;;;;8337357;28;20262;-94
2023/08/31 13:47:05;;;;;;;3.78;2.70;;;;;;;;;;8286432;28;20050;-96
2023/08/31 13:55:49;;;;;;;4.85;2.85;;;;;;;;;;8333209;23;20522;-93
2023/08/31 13:59:54;;;;;;;5.85;2.60;;;;;;;;;;8382446;28;20119;-96
2023/08/31 14:03:57;;;;;;;3.88;2.78;;;;;;;;;;8365684;28;20098;-91
2023/08/31 14:08:04;;;;;;;6.40;2.95;;;;;;;;;;8364011;28;22219;-95
2023/08/31 14:12:11;;;;;;;4.03;2.70;;;;;;;;;;8394583;28;20412;-94
2023/08/31 14:16:19;;;;;;;4.07;2.70;;;;;;;;;;8389584;23;20067;-90
2023/08/31 14:20:22;;;;;;;4.88;2.40;;;;;;;;;;8346998;28;20053;-90
2023/08/31 14:24:25;;;;;;;6.63;2.90;;;;;;;;;;8352450;28;20067;-91
2023/08/31 14:28:37;;;;;;;3.60;2.75;;;;;;;;;;8338874;22;20061;-94
2023/08/31 14:33:03;;;;;;;4.63;3.08;;;;;;;;;;8343425;28;20080;-93
2023/08/31 14:37:13;;;;;;;4.32;3.13;;;;;;;;;;8353009;28;20057;-92
2023/08/31 14:41:18;;;;;;;7.88;3.75;;;;;;;;;;8351961;28;20452;-92
2023/08/31 14:45:42;;;;;;;4.95;3.35;;;;;;;;;;8330204;28;20053;-91
2023/08/31 14:54:09;;;;;;;9.13;4.32;;;;;;;;;;8345800;28;20138;-92
2023/08/31 14:58:13;;;;;;;8.40;4.03;;;;;;;;;;8351403;28;20133;-91
2023/08/31 15:02:23;;;;;;;7.95;4.40;;;;;;;;;;8364460;28;20049;-92
2023/08/31 15:06:39;;;;;;;11.88;4.28;;;;;;;;;;8350391;28;20045;-91
2023/08/31 15:10:44;;;;;;;8.32;4.80;;;;;;;;;;8358476;28;20084;-92
2023/08/31 15:14:51;;;;;;;9.48;4.85;;;;;;;;;;8337575;28;20140;-93
2023/08/31 15:23:23;;;;;;;5.43;3.95;;;;;;;;;;8339294;28;20420;-94
2023/08/31 15:27:28;;;;;;;8.52;4.32;;;;;;;;;;8343326;28;20049;-92
2023/08/31 15:31:37;;;;;;;6.93;4.43;;;;;;;;;;8380778;22;20057;-92
2023/08/31 15:35:40;;;;;;;5.85;4.32;;;;;;;;;;8348203;28;20048;-93
2023/08/31 15:39:47;;;;;;;7.60;4.22;;;;;;;;;;8336205;28;20081;-90
2023/08/31 15:43:51;;;;;;;6.28;4.43;;;;;;;;;;8330350;28;20064;-93
2023/08/31 15:48:00;;;;;;;8.32;3.72;;;;;;;;;;8325628;28;20064;-93
2023/08/31 15:52:06;;;;;;;5.82;4.10;;;;;;;;;;8337830;28;20404;-92
2023/08/31 15:56:13;;;;;;;5.90;3.72;;;;;;;;;;8344959;28;20076;-90
2023/08/31 16:00:21;;;;;;;5.80;4.18;;;;;;;;;;8350196;28;20580;-91
2023/08/31 16:04:26;;;;;;;5.50;4.20;;;;;;;;;;8340182;28;20051;-92
2023/08/31 16:08:30;;;;;;;5.18;4.20;;;;;;;;;;8317685;28;20061;-91
2023/08/31 16:12:45;;;;;;;6.03;4.15;;;;;;;;;;8290693;28;20527;-93
2023/08/31 16:16:54;;;;;;;5.65;4.45;;;;;;;;;;8328393;28;20049;-93
2023/08/31 16:21:02;;;;;;;5.15;3.78;;;;;;;;;;8324492;28;20115;-94
2023/08/31 16:25:11;;;;;;;6.28;4.72;;;;;;;;;;8348133;28;20136;-93
2023/08/31 16:29:21;;;;;;;6.53;4.72;;;;;;;;;;8328671;28;20061;-94
2023/08/31 16:33:27;;;;;;;9.30;5.22;;;;;;;;;;8344068;28;20063;-92
2023/08/31 16:37:31;;;;;;;10.05;6.65;;;;;;;;;;8463408;22;20052;-91
2023/08/31 16:41:35;;;;;;;8.07;5.65;;;;;;;;;;8336086;28;20077;-92
2023/08/31 16:45:48;;;;;;;7.60;5.87;;;;;;;;;;8338227;28;20110;-94
2023/08/31 16:50:04;;;;;;;9.88;6.75;;;;;;;;;;8321162;28;20049;-92
2023/08/31 16:54:09;;;;;;;11.60;7.00;;;;;;;;;;8349090;28;20140;-92
2023/08/31 16:58:21;;;;;;;8.40;5.93;;;;;;;;;;8362244;28;20098;-94
2023/08/31 17:02:36;;;;;;;60.33;31.67;;;;;;;;;;8345529;28;20060;-91
2023/08/31 17:06:45;;;;;;;13.98;10.38;;;;;;;;;;8353869;28;20057;-90
2023/08/31 17:10:55;;;;;;;17.33;11.40;;;;;;;;;;8295044;28;20190;-92
2023/08/31 17:15:00;;;;;;;10.93;8.73;;;;;;;;;;8360021;28;20182;-93
2023/08/31 17:19:08;;;;;;;15.45;9.75;;;;;;;;;;8335664;28;20156;-94
2023/08/31 17:23:12;;;;;;;12.30;9.15;;;;;;;;;;8350137;28;20140;-92
2023/08/31 17:27:16;;;;;;;11.10;8.52;;;;;;;;;;8341308;28;20060;-92
2023/08/31 17:31:20;;;;;;;12.68;10.27;;;;;;;;;;8620170;22;20053;-90
2023/08/31 17:35:29;;;;;;;12.20;9.15;;;;;;;;;;8355887;28;20064;-92
2023/08/31 17:39:37;;;;;;;16.42;10.73;;;;;;;;;;8355157;28;20068;-93
2023/08/31 17:43:45;;;;;;;13.73;9.88;;;;;;;;;;8350596;28;20064;-93
2023/08/31 17:47:50;;;;;;;13.02;9.43;;;;;;;;;;8352194;28;20053;-93
2023/08/31 17:51:59;;;;;;;14.75;9.90;;;;;;;;;;8354730;28;20063;-91
2023/08/31 17:56:08;;;;;;;14.63;10.80;;;;;;;;;;8366093;28;20049;-91
2023/08/31 18:00:13;;;;;;;19.02;13.95;;;;;;;;;;8350416;23;20044;-93
2023/08/31 18:04:18;;;;;;;18.33;11.23;;;;;;;;;;8375139;28;20045;-91
2023/08/31 18:08:29;;;;;;;18.80;12.80;;;;;;;;;;8383364;28;20060;-91
2023/08/31 18:12:39;;;;;;;18.83;12.82;;;;;;;;;;8360889;28;20143;-89
2023/08/31 18:16:43;;;;;;;18.63;11.43;;;;;;;;;;8372536;28;20063;-89
2023/08/31 18:20:47;;;;;;;18.73;10.90;;;;;;;;;;8386717;28;20060;-91
2023/08/31 18:24:58;;;;;;;18.85;12.20;;;;;;;;;;8370259;28;20056;-92
2023/08/31 18:29:09;;;;;;;18.23;12.60;;;;;;;;;;8394098;28;20061;-93
2023/08/31 18:33:20;;;;;;;20.08;12.98;;;;;;;;;;8374003;28;20807;-92
2023/08/31 18:37:29;;;;;;;19.38;12.20;;;;;;;;;;8384181;28;20491;-94
2023/08/31 18:41:47;;;;;;;24.52;15.13;;;;;;;;;;8370244;28;20544;-93
2023/08/31 18:45:55;;;;;;;27.27;14.80;;;;;;;;;;8393150;28;20162;-93
2023/08/31 18:49:59;;;;;;;29.75;14.70;;;;;;;;;;8374181;28;20061;-94
2023/08/31 18:54:04;;;;;;;37.80;16.70;;;;;;;;;;8428398;28;20044;-89
2023/08/31 18:58:13;;;;;;;33.35;15.95;;;;;;;;;;8439953;28;20037;-89
2023/08/31 19:02:18;;;;;;;30.58;14.20;;;;;;;;;;8392676;28;20049;-95
2023/08/31 19:06:28;;;;;;;19.40;12.90;;;;;;;;;;8405340;28;20458;-92
2023/08/31 19:10:33;;;;;;;21.35;12.80;;;;;;;;;;8397824;28;20052;-87
2023/08/31 19:14:40;;;;;;;23.17;14.05;;;;;;;;;;8376767;28;20419;-92
2023/08/31 19:18:45;;;;;;;25.17;15.07;;;;;;;;;;8381421;28;20076;-91
2023/08/31 19:23:03;;;;;;;23.58;13.40;;;;;;;;;;8382633;28;20068;-92
2023/08/31 19:27:12;;;;;;;21.35;13.65;;;;;;;;;;8395124;28;20388;-91
2023/08/31 19:31:22;;;;;;;28.20;13.88;;;;;;;;;;8379376;28;20057;-90
2023/08/31 19:35:30;;;;;;;22.00;13.82;;;;;;;;;;8381084;28;20060;-90
2023/08/31 19:39:40;;;;;;;33.97;13.15;;;;;;;;;;8378593;28;20052;-90
2023/08/31 19:43:45;;;;;;;20.92;13.48;;;;;;;;;;8388154;28;20073;-90
2023/08/31 19:47:57;;;;;;;20.50;11.50;;;;;;;;;;8318183;28;20518;-91
2023/08/31 19:52:01;;;;;;;18.55;10.40;;;;;;;;;;8347647;28;20056;-90
2023/08/31 19:56:07;;;;;;;23.95;11.48;;;;;;;;;;8397723;28;20056;-89
2023/08/31 20:00:11;;;;;;;19.90;11.57;;;;;;;;;;8391077;28;20056;-90
2023/08/31 20:04:17;;;;;;;23.85;12.05;;;;;;;;;;8379516;28;20064;-90
2023/08/31 20:08:21;;;;;;;25.77;13.30;;;;;;;;;;8376486;28;20071;-90
2023/08/31 20:12:26;;;;;;;27.98;13.43;;;;;;;;;;8369171;28;20068;-91
2023/08/31 20:16:31;;;;;;;26.08;13.48;;;;;;;;;;8377348;28;20048;-90
2023/08/31 20:20:38;;;;;;;27.38;14.52;;;;;;;;;;8396087;28;20056;-90
2023/08/31 20:24:42;;;;;;;30.55;15.68;;;;;;;;;;8378436;28;20056;-90
2023/08/31 20:28:52;;;;;;;26.98;14.57;;;;;;;;;;8395889;28;20041;-90
2023/08/31 20:32:56;;;;;;;30.70;15.10;;;;;;;;;;8395754;28;20063;-90
2023/08/31 20:37:04;;;;;;;29.75;15.20;;;;;;;;;;8367990;28;20133;-90
2023/08/31 20:41:08;;;;;;;38.45;17.63;;;;;;;;;;8367459;28;20080;-89
2023/08/31 20:45:16;;;;;;;29.85;15.25;;;;;;;;;;8365577;28;20048;-90
2023/08/31 20:49:21;;;;;;;31.75;14.93;;;;;;;;;;8366614;28;20057;-90
2023/08/31 20:53:26;;;;;;;29.63;14.10;;;;;;;;;;8395716;28;20060;-91
2023/08/31 20:57:30;;;;;;;32.28;14.13;;;;;;;;;;8367080;28;20086;-88
2023/08/31 21:01:34;;;;;;;30.15;15.18;;;;;;;;;;8395638;28;20118;-89
2023/08/31 21:05:37;;;;;;;34.92;14.52;;;;;;;;;;8394879;28;20049;-90
2023/08/31 21:09:43;;;;;;;30.88;14.75;;;;;;;;;;8395466;28;20060;-89
2023/08/31 21:13:46;;;;;;;27.95;13.60;;;;;;;;;;8431107;22;20062;-90
2023/08/31 21:17:50;;;;;;;27.75;13.68;;;;;;;;;;8428616;28;20056;-91
2023/08/31 21:21:53;;;;;;;33.55;16.25;;;;;;;;;;8428438;28;20051;-89
2023/08/31 21:26:00;;;;;;;31.90;15.25;;;;;;;;;;8407837;28;20063;-90
2023/08/31 21:30:03;;;;;;;33.40;14.68;;;;;;;;;;8402587;28;20105;-91
2023/08/31 21:34:08;;;;;;;30.83;14.00;;;;;;;;;;8415008;28;20052;-90
2023/08/31 21:38:12;;;;;;;35.20;15.52;;;;;;;;;;8434553;28;20052;-91
2023/08/31 21:42:16;;;;;;;38.97;14.77;;;;;;;;;;8417080;28;20056;-91
2023/08/31 21:46:20;;;;;;;30.75;13.63;;;;;;;;;;8434412;28;20464;-89
2023/08/31 21:50:23;;;;;;;30.48;12.88;;;;;;;;;;8434222;28;20052;-89
2023/08/31 21:54:26;;;;;;;28.45;13.20;;;;;;;;;;8407940;28;20495;-89
2023/08/31 21:58:31;;;;;;;21.20;11.73;;;;;;;;;;8413856;28;20080;-90
2023/08/31 22:02:34;;;;;;;21.20;11.38;;;;;;;;;;8407634;28;20040;-90
2023/08/31 22:06:39;;;;;;;26.17;13.48;;;;;;;;;;8413748;28;20052;-91
2023/08/31 22:10:42;;;;;;;26.27;12.90;;;;;;;;;;8416388;28;20066;-90
2023/08/31 22:14:47;;;;;;;22.48;11.60;;;;;;;;;;8433542;28;20551;-90
2023/08/31 22:18:50;;;;;;;22.00;11.85;;;;;;;;;;8406770;28;20063;-90
2023/08/31 22:22:56;;;;;;;25.55;13.48;;;;;;;;;;8412976;28;20063;-90
2023/08/31 22:27:00;;;;;;;24.70;13.27;;;;;;;;;;8433052;28;20059;-91
2023/08/31 22:31:04;;;;;;;30.17;13.10;;;;;;;;;;8432830;28;20090;-90
2023/08/31 22:35:08;;;;;;;27.48;12.73;;;;;;;;;;8419516;28;20546;-91
2023/08/31 22:39:11;;;;;;;26.40;12.77;;;;;;;;;;8426681;28;20074;-91
2023/08/31 22:43:14;;;;;;;25.02;12.75;;;;;;;;;;8415082;28;20495;-89
2023/08/31 22:47:19;;;;;;;27.08;13.00;;;;;;;;;;8429010;28;20479;-89
2023/08/31 22:51:22;;;;;;;26.40;12.30;;;;;;;;;;8432190;28;20446;-90
2023/08/31 22:55:26;;;;;;;27.48;13.02;;;;;;;;;;8412900;28;20545;-90
2023/08/31 22:59:30;;;;;;;31.15;14.32;;;;;;;;;;8432286;28;20052;-89
2023/08/31 23:03:34;;;;;;;32.88;14.27;;;;;;;;;;8432310;28;20131;-90
2023/08/31 23:07:38;;;;;;;27.20;13.63;;;;;;;;;;8431892;28;20127;-90
2023/08/31 23:11:40;;;;;;;32.08;14.77;;;;;;;;;;8431622;28;20156;-91
2023/08/31 23:15:44;;;;;;;30.45;13.40;;;;;;;;;;8398949;28;20051;-90
2023/08/31 23:19:50;;;;;;;27.92;13.68;;;;;;;;;;8427140;28;20060;-89
2023/08/31 23:23:52;;;;;;;29.75;13.77;;;;;;;;;;8431900;28;20586;-90
2023/08/31 23:27:55;;;;;;;32.58;14.10;;;;;;;;;;8430663;28;20495;-90
2023/08/31 23:31:59;;;;;;;28.98;13.85;;;;;;;;;;8406069;28;20588;-90
2023/08/31 23:36:03;;;;;;;30.65;14.02;;;;;;;;;;8430656;28;20048;-89
2023/08/31 23:40:09;;;;;;;27.88;12.32;;;;;;;;;;8430946;28;20048;-88
2023/08/31 23:44:12;;;;;;;26.50;12.32;;;;;;;;;;8430451;28;20139;-89
2023/08/31 23:48:15;;;;;;;29.27;13.13;;;;;;;;;;8430955;28;20575;-90
2023/08/31 23:52:19;;;;;;;26.88;12.63;;;;;;;;;;8412814;28;20052;-90
2023/08/31 23:56:22;;;;;;;27.25;13.05;;;;;;;;;;8430596;28;20040;-90
